Tiempo atmosférico en la estación meteorológica de Granada Aeropuerto, Granada (567 m.)



Fecha
DESCASC
Temp. máxima en grados centígrados (hora)
DESCASC
Temp. mínima en grados centígrados (hora)
DESCASC
Temp. media en grados centígrados
DESCASC
Racha de viento máxima en m/sg (hora)
DESCASC
Velocidad máxima media en intervalos de 10 minutos(hora)
DESCASC
Precipitaciones diarias en mm
DESCASC
Precipitaciones de 00:00 a 06:00 en mm
DESCASC
Precipitaciones de 06:00 a 12:00 en mm
DESCASC
Precipitaciones de 12:00 a 18:00 en mm
DESCASC
Precipitaciones de 18:00 a 24:00 en mm
DESCASC
23-06-2019 36.8 (16:10) 15.5 (07:00) 26.1 10.83 (19:40) 7.78 (19:40) 0 0 0 0 0
22-06-2019 35.5 (19:00) 11.6 (07:20) 23.6 9.17 (20:40) 5.56 (20:40) 0 0 0 0 0
21-06-2019 32.2 (18:00) 13.1 (07:10) 22.7 10.28 (19:20) 6.67 (20:00) 0 0 0 0 0
20-06-2019 30.5 (15:30) 12.5 (00:00) 21.5 12.5 (17:10) 8.33 (19:30) 0 0 0 0 0
19-06-2019 32 (17:40) 13.5 (00:00) 22.8 9.72 (17:50) 6.94 (18:00) 0 0 0 0 0
18-06-2019 33 (16:20) 10.1 (00:00) 21.6 13.33 (15:50) 8.89 (15:50) 0 0 0 0 0
17-06-2019 33.6 (17:20) 10 (00:00) 21.8 9.72 (18:50) 5.83 (16:40) 0 0 0 0 0
16-06-2019 32 (17:40) 9.6 (00:00) 20.8 9.17 (16:20) 6.11 (20:00) 0 0 0 0 0
15-06-2019 31.3 (17:40) 8.6 (00:00) 19.9 9.72 (17:00) 6.11 (19:20) 0 0 0 0 0
14-06-2019 26.5 (13:00) 15.9 (00:00) 21.2 11.39 (15:10) 7.78 (14:40) 0 0 0 0 0
13-06-2019 30.1 (17:00) 12.4 (00:00) 21.3 12.78 (17:20) 8.06 (20:00) 0 0 0 0 0
12-06-2019 29.3 (18:40) 11.4 (00:00) 20.3 9.72 (19:30) 6.39 (19:30) 0 0 0 0 0
11-06-2019 28.6 (17:40) 6.4 (00:00) 17.5 13.33 (17:40) 8.61 (17:30) 0 0 0 0 0
10-06-2019 28.3 (16:20) 11.5 (00:00) 19.9 11.67 (15:40) 8.06 (18:00) 0 0 0 0 0
09-06-2019 28.9 (16:30) 16.8 (00:00) 22.8 11.67 (17:00) 7.78 (17:50) 0 0 0 0 0
08-06-2019 32 (16:20) 8.9 (00:00) 20.4 9.72 (18:30) 5.83 (18:30) 0 0 0 0 0
07-06-2019 28.6 (17:00) 10.9 (00:00) 19.8 9.72 (17:20) 6.11 (19:40) 0 0 0 0 0
06-06-2019 29.7 (17:00) 7.4 (00:00) 18.6 10.28 (17:00) 7.22 (16:30) 0 0 0 0 0
05-06-2019 24.5 (17:40) 13.7 (00:00) 19.1 12.78 (02:30) 8.89 (03:10) 0 0 0 0 0
04-06-2019 33.2 (15:40) 9.4 (00:00) 21.3 11.67 (19:20) 6.94 (19:20) 0 0 0 0 0
03-06-2019 36.1 (16:10) 11.6 (00:00) 23.8 13.33 (17:00) 7.5 (17:30) 0 0 0 0 0
02-06-2019 35.3 (16:50) 9.4 (00:00) 22.3 10.28 (18:30) 7.5 (18:40) 0 0 0 0 0
01-06-2019 33.5 (16:20) 10.4 (00:00) 21.9 10.83 (18:40) 8.33 (19:10) 0 0 0 0 0
31-05-2019 33.3 (17:00) 9.7 (00:00) 21.5 11.39 (19:10) 8.06 (19:00) 0 0 0 0 0
30-05-2019 30.6 (16:50) 13.8 (00:00) 22.2 10.83 (19:10) 8.33 (19:50) 0 0 0 0 0
29-05-2019 33.1 (17:30) 13.1 (00:00) 23.1 9.17 (18:30) 6.94 (22:40) 0 0 0 0 0
28-05-2019 34.4 (16:10) 12.9 (00:00) 23.7 12.5 (17:50) 6.39 (16:10) 0 0 0 0 0
27-05-2019 32.9 (16:30) 8.5 (00:00) 20.7 9.17 (16:30) 5.83 (17:40) 0 0 0 0 0
26-05-2019 29.2 (17:00) 9.4 (00:00) 19.3 9.72 (18:10) 5.83 (18:10) 0 0 0 0 0

Gráficas

Temp. máximas Temp. mínimas Temp. medias Precipitaciones Rachas de viento máximas Velocidades máximas media en intervalos de 10 minutos

Datos horarios

Fecha y hora oficial Temperatura (ºC) Velocidad del viento (km/h) Dirección del viento Racha (km/h) Dirección de racha Precipitación (mm) Presión (hPa) Tendencia (hPa) Humedad (%)
2019-06-24 23:00:00 25.1 13 Oeste 22 Oeste 0 949.4 1.8 49
2019-06-24 22:00:00 27.5 17 Oeste 26 Oeste 0 948.6 1.4 38
2019-06-24 21:00:00 30.5 22 Oeste 30 Oeste 0 948 0.8 31
2019-06-24 20:00:00 32.7 20 Oeste 30 Oeste 0 947.6 0.3 28
2019-06-24 19:00:00 33.5 18 Oeste 30 Noroeste 0 947.2 -0.1 28
2019-06-24 18:00:00 33.9 21 Oeste 33 Oeste 0 947.2 -0.3 27
2019-06-24 17:00:00 34.1 18 Oeste 32 Oeste 0 947.3 -0.8 27
2019-06-24 16:00:00 34 14 Oeste 30 Oeste 0 947.3 -1.3 29
2019-06-24 15:00:00 32.8 9 Oeste 26 Oeste 0 947.5 -1.4 31
2019-06-24 14:00:00 31.2 6 Norte 18 Noroeste 0 948.1 -1 32
2019-06-24 13:00:00 29.8 4 Sur 15 Sudoeste 0 948.6 -0.6 31
2019-06-24 12:00:00 27.8 3 Oeste 13 Oeste 0 948.9 -0.3 37
2019-06-24 11:00:00 25.4 3 Nordeste 17 Nordeste 0 949.1 0.2 40
2019-06-24 10:00:00 23.8 4 Noroeste 15 Sudoeste 0 949.2 0.3 47
2019-06-24 09:00:00 20.7 4 Oeste 8 Oeste 0 949.2 0.5 62
2019-06-24 08:00:00 18.1 0 Calma 4 Sudeste 0.2 948.9 0.4 68
2019-06-24 07:00:00 16 2 Sudoeste 5 Norte 0 948.9 0.3 74
2019-06-24 06:00:00 17.2 0 Calma 5 Sudoeste 0 948.7 -0.1 69
2019-06-24 05:00:00 18.2 3 Sudoeste 8 Sudoeste 0 948.5 -0.3 66
2019-06-24 04:00:00 19.7 0 Calma 8 Este 0 948.6 -0.1 63
2019-06-24 03:00:00 20.7 4 Sur 13 Oeste 0 948.8 0.3 59
2019-06-24 02:00:00 21.3 8 Oeste 15 Oeste 0 948.8 0.7 52
2019-06-24 01:00:00 21.7 6 Oeste 15 Oeste 0 948.7 1.5 50
2019-06-24 00:00:00 23.1 6 Sudoeste 18 Sudoeste 0 948.5 2.2 50
2019-06-23 23:00:00 25.2 5 Sudoeste 18 Sudoeste 0 948.1 2.6 44
2019-06-23 22:00:00 27.3 14 Oeste 35 Oeste 0 947.2 2.2 37
2019-06-23 21:00:00 30.1 22 Oeste 35 Oeste 0 946.3 1 31
2019-06-23 20:00:00 32.7 25 Oeste 39 Oeste 0 945.5 0 29
2019-06-23 19:00:00 35 21 Oeste 32 Oeste 0 945 -0.9 27
2019-06-23 18:00:00 35.7 17 Oeste 30 Noroeste 0 945.3 -1.1 25
2019-06-23 17:00:00 36 15 Oeste 30 Oeste 0 945.5 -1.4 23
2019-06-23 16:00:00 36.1 8 Noroeste 30 Oeste 0 945.9 -1.4 23
2019-06-23 15:00:00 35.2 14 Oeste 24 Oeste 0 946.4 -1.5 23
2019-06-23 14:00:00 33.6 7 Noroeste 18 Norte 0 946.9 -1.6 24
2019-06-23 13:00:00 31.7 4 Noroeste 15 Norte 0 947.3 -1.9 26
2019-06-23 12:00:00 29.3 6 Norte 21 Norte 0 947.9 -1.7 37
2019-06-23 11:00:00 26.9 5 Nordeste 13 Nordeste 0 948.5 -1.1 43
2019-06-23 10:00:00 23.7 0 Calma 5 Noroeste 0 949.2 -0.1 53
2019-06-23 09:00:00 20.8 0 Calma 5 Sudoeste 0 949.6 0.6 59
2019-06-23 08:00:00 16.9 2 Noroeste 8 Oeste 0 949.6 0.7 72
2019-06-23 07:00:00 15.6 3 Sur 5 Sudoeste 0 949.3 0.4 75
2019-06-23 06:00:00 16.2 4 Oeste 5 Oeste 0 949 -0.3 75
2019-06-23 05:00:00 16.6 4 Oeste 5 Oeste 0 948.9 -0.5 73
2019-06-23 04:00:00 17.9 0 Calma 5 Oeste 0 948.9 -0.6 70
2019-06-23 03:00:00 17.9 0 Calma 8 Sur 0 949.3 -0.1 70
2019-06-23 02:00:00 19.5 0 Calma 5 Sudoeste 0 949.4 0.4 61
2019-06-23 01:00:00 20.9 3 Sudoeste 5 Oeste 0 949.5 1.5 54
2019-06-23 00:00:00 21.4 0 Calma 13 Sudeste 0 949.4 2 51
2019-06-22 23:00:00 24.1 0 Calma 13 Sur 0 949 2.2 48
2019-06-22 22:00:00 26.7 7 Sur 30 Sur 0 948 1.4 43
2019-06-22 21:00:00 29.4 15 Sur 33 Sur 0 947.4 0.6 40
2019-06-22 20:00:00 33.1 18 Oeste 30 Oeste 0 946.8 -0.4 25
2019-06-22 19:00:00 35.2 8 Sudoeste 21 Oeste 0 946.6 -1.2 21
2019-06-22 18:00:00 34.9 13 Oeste 32 Oeste 0 946.8 -1.5 21
2019-06-22 17:00:00 34.5 7 Oeste 30 Oeste 0 947.2 -1.9 21
2019-06-22 16:00:00 33.4 9 Noroeste 24 Oeste 0 947.8 -2 24
2019-06-22 15:00:00 33 6 Norte 22 Este 0 948.3 -1.6 25
2019-06-22 14:00:00 31.4 5 Nordeste 24 Norte 0 949.1 -1.3 27
2019-06-22 13:00:00 29.9 7 Norte 21 Noroeste 0 949.8 -1.2 30
2019-06-22 12:00:00 27.6 6 Nordeste 18 Norte 0 949.9 -0.9 35
2019-06-22 11:00:00 25.6 3 Este 15 Este 0 950.4 -0.6 35
2019-06-22 10:00:00 20.9 0 Calma 5 Norte 0 951 0.6 42
2019-06-22 09:00:00 17.7 3 Norte 8 Norte 0 950.8 0.8 48
2019-06-22 08:00:00 14.8 3 Sudoeste 9 Oeste 0 951 1.1 52
2019-06-22 07:00:00 11.9 6 Sudoeste 8 Sudoeste 0 950.4 0.4 61
2019-06-22 06:00:00 12.1 0 Calma 9 Sudoeste 0 950 -0.3 62
2019-06-22 05:00:00 13.3 3 Sudoeste 5 Oeste 0 949.9 -0.3 55
2019-06-22 04:00:00 14.2 0 Calma 8 Sudoeste 0 950 -0.3 52
2019-06-22 03:00:00 15.7 0 Calma 5 Sur 0 950.3 0.3 48
2019-06-22 02:00:00 17.5 0 Calma 4 Oeste 0 950.2 0.4 44
2019-06-22 01:00:00 19.1 0 Calma 13 Sudoeste 0 950.3 1.5 42
2019-06-22 00:00:00 20.6 6 Sudoeste 11 Sudoeste 0 950 1.7 36
2019-06-21 23:00:00 22.6 7 Sudoeste 21 Oeste 0 949.8 1.8 33
2019-06-21 22:00:00 25 14 Oeste 28 Oeste 0 948.8 1.3 28
2019-06-21 21:00:00 27.8 17 Oeste 33 Oeste 0 948.3 0.8 25
2019-06-21 20:00:00 29.5 24 Oeste 37 Oeste 0 948 0.4 26
2019-06-21 19:00:00 31.1 23 Oeste 33 Oeste 0 947.5 -0.7 26
2019-06-21 18:00:00 31.9 18 Oeste 35 Oeste 0 947.5 -1 26
2019-06-21 17:00:00 32 19 Oeste 33 Oeste 0 947.6 -1.4 27
2019-06-21 16:00:00 31.6 16 Oeste 30 Oeste 0 948.2 -1.3 26
2019-06-21 15:00:00 30.2 16 Oeste 28 Oeste 0 948.5 -1.5 31
2019-06-21 14:00:00 29.1 8 Oeste 24 Oeste 0 949 -1.3 35
2019-06-21 13:00:00 27.7 6 Oeste 18 Oeste 0 949.5 -1 35
2019-06-21 12:00:00 24.3 6 Noroeste 15 Noroeste 0 950 -0.5 46
2019-06-21 11:00:00 21.3 4 Oeste 13 Norte 0 950.3 -0.1 55
2019-06-21 10:00:00 19.9 3 Oeste 11 Oeste 0 950.5 0.2 59
2019-06-21 09:00:00 18 3 Noroeste 8 Norte 0 950.5 0.7 65
2019-06-21 08:00:00 14.6 0 Calma 4 Sudeste 0 950.4 0.8 76
2019-06-21 07:00:00 13.4 0 Calma -- -- 0 950.3 0.9 79
2019-06-21 06:00:00 14 3 Noroeste -- -- -- 949.8 0.4 77
2019-06-21 05:00:00 15.1 0 Calma 17 Oeste 0 949.6 0.3 72
2019-06-21 04:00:00 16 8 Oeste 21 Oeste 0 949.4 0.1 71
2019-06-21 03:00:00 17.2 13 Sudoeste 26 Oeste 0 949.4 0.2 68
2019-06-21 02:00:00 16.9 8 Sudoeste 15 Sudoeste 0 949.3 0.4 64
2019-06-21 01:00:00 18.1 9 Oeste 17 Sudoeste 0 949.3 1.3 55
2019-06-21 00:00:00 19.8 14 Sudoeste 21 Sudoeste 0 949.2 1.7 52
2019-06-20 23:00:00 21.2 12 Oeste 28 Oeste 0 948.9 1.5 48
2019-06-20 22:00:00 23 21 Oeste 32 Oeste 0 948 0.9 42
2019-06-20 21:00:00 25.5 22 Oeste 35 Oeste 0 947.5 0.3 36
2019-06-20 20:00:00 27.5 26 Oeste 39 Oeste 0 947.4 0.3 32
2019-06-20 19:00:00 28.8 26 Oeste 41 Oeste 0 947.1 -0.2 32
2019-06-20 18:00:00 29.4 27 Oeste 45 Oeste 0 947.2 -0.5 32
2019-06-20 17:00:00 30 28 Oeste 39 Oeste 0 947.1 -1.3 30
2019-06-20 16:00:00 30.3 23 Oeste 37 Oeste 0 947.3 -1.6 29
2019-06-20 15:00:00 29.9 19 Oeste 32 Oeste 0 947.7 -1.5 28
2019-06-20 14:00:00 28.5 20 Oeste 32 Oeste 0 948.4 -1 36
2019-06-20 13:00:00 27.2 11 Oeste 26 Oeste 0 948.9 -0.7 35
2019-06-20 12:00:00 24.4 4 Noroeste 17 Noroeste 0 949.2 -0.5 48
2019-06-20 11:00:00 22.4 5 Noroeste 13 Noroeste 0 949.4 -0.4 55
2019-06-20 10:00:00 20 2 Sudoeste 11 Noroeste 0 949.6 -0.2 62
2019-06-20 09:00:00 19.1 0 Calma 4 Nordeste 0 949.7 -0.1 64
2019-06-20 08:00:00 14.8 0 Calma 4 Sudoeste 0 949.8 0.3 80
2019-06-20 07:00:00 12.7 0 Calma 8 Sur 0 949.8 0 83
2019-06-20 06:00:00 13.7 4 Sur 5 Sur 0 949.8 -0.1 80
2019-06-20 05:00:00 15.1 0 Calma 13 Sudoeste 0 949.5 -0.4 79
2019-06-20 04:00:00 16.4 7 Sudoeste 21 Oeste 0 949.8 0 75
2019-06-20 03:00:00 17.7 13 Oeste 21 Oeste 0 949.9 0.2 71
2019-06-20 02:00:00 18.3 12 Oeste 21 Oeste 0 949.9 0.5 66
2019-06-20 01:00:00 19.1 12 Oeste 15 Oeste 0 949.8 1.1 53
2019-06-20 00:00:00 19.7 0 Calma 11 Oeste 0 949.7 1.2 48
2019-06-19 23:00:00 21.8 4 Oeste 18 Oeste 0 949.4 1.2 43
2019-06-19 22:00:00 24.4 15 Oeste 28 Oeste 0 948.7 0.6 36
2019-06-19 21:00:00 27.6 20 Oeste 32 Oeste 0 948.5 0.1 26
2019-06-19 20:00:00 29.7 23 Oeste 33 Oeste 0 948.2 -0.6 20
2019-06-19 19:00:00 30.8 23 Oeste 35 Oeste 0 948.1 -1.2 20
2019-06-19 18:00:00 31.6 25 Oeste 35 Oeste 0 948.4 -1.3 20
2019-06-19 17:00:00 31.7 23 Oeste 33 Oeste 0 948.8 -1.5 18
2019-06-19 16:00:00 31.1 19 Oeste 32 Oeste 0 949.3 -1.4 20
2019-06-19 15:00:00 30 16 Oeste 26 Noroeste 0 949.7 -1.2 21
2019-06-19 14:00:00 28.5 14 Oeste 28 Oeste 0 950.3 -0.8 33
2019-06-19 13:00:00 26.3 12 Oeste 21 Oeste 0 950.7 -0.7 42
2019-06-19 12:00:00 24.3 8 Noroeste 18 Noroeste 0 950.9 -0.6 48
2019-06-19 11:00:00 22 5 Noroeste 15 Oeste 0 951.1 -0.1 56
2019-06-19 10:00:00 19.9 3 Oeste 13 Oeste 0 951.4 0.3 65
2019-06-19 09:00:00 17.7 6 Oeste 13 Noroeste 0 951.5 0.4 75
2019-06-19 08:00:00 14.7 4 Oeste 8 Sudoeste 0 951.2 0.2 82
2019-06-19 07:00:00 14 6 Sur 8 Sur 0 951.1 0.3 83
2019-06-19 06:00:00 14.3 2 Sur 4 Sur 0 951.1 0.3 80
2019-06-19 05:00:00 14.4 0 Calma 4 Sur 0 951 -0.1 79
2019-06-19 04:00:00 14.8 0 Calma 9 Oeste 0 950.8 -0.4 76
2019-06-19 03:00:00 15.5 6 Oeste -- -- 0 950.8 -0.4 74
2019-06-19 02:00:00 17.2 2 Sur 13 Sudoeste 0 951.1 0.4 70
2019-06-19 01:00:00 18.8 8 Sudoeste 22 Sudoeste 0 951.2 1.3 64
2019-06-19 00:00:00 19.9 6 Oeste 24 Oeste 0 951.2 1.8 57
2019-06-18 23:00:00 21.9 16 Oeste 28 Oeste 0 950.7 1.6 46
2019-06-18 22:00:00 23.9 20 Oeste 32 Oeste 0 949.9 1.1 38
2019-06-18 21:00:00 27 22 Oeste 32 Oeste 0 949.4 0.5 33
2019-06-18 20:00:00 29 21 Oeste 30 Oeste 0 949.1 0.3 32
2019-06-18 19:00:00 30.7 18 Oeste 39 Sudoeste 0 948.8 -0.1 25
2019-06-18 18:00:00 32.4 26 Sudoeste 42 Oeste 0 948.9 -0.2 9
2019-06-18 17:00:00 32.6 31 Oeste 45 Sudoeste 0 948.8 -0.7 15
2019-06-18 16:00:00 32.4 30 Oeste 48 Oeste 0 948.9 -1.1 19
2019-06-18 15:00:00 32.3 31 Oeste 42 Sudoeste 0 949.1 -1.2 20
2019-06-18 14:00:00 31.6 18 Oeste 37 Oeste 0 949.5 -0.8 19
2019-06-18 13:00:00 30.1 19 Oeste 28 Oeste 0 950 -0.5 18
2019-06-18 12:00:00 27 7 Noroeste 17 Noroeste 0 950.3 -0.4 23
2019-06-18 11:00:00 24.5 5 Noroeste 11 Noroeste 0 950.3 -0.5 30
2019-06-18 10:00:00 20.8 0 Calma 5 Norte 0 950.5 -0.2 36
2019-06-18 09:00:00 16.7 0 Calma 5 Noroeste 0 950.7 0.2 44
2019-06-18 08:00:00 13.4 4 Sudoeste 8 Sur 0 950.8 0.4 49
2019-06-18 07:00:00 10.3 5 Sudoeste 8 Sudoeste 0 950.7 0.3 62
2019-06-18 06:00:00 12 3 Oeste 5 Oeste 0 950.5 0 56
2019-06-18 05:00:00 13 4 Oeste 8 Sur 0 950.4 -0.3 54
2019-06-18 04:00:00 13.2 4 Oeste 8 Oeste 0 950.4 -0.5 51
2019-06-18 03:00:00 15.3 3 Oeste 13 Sur 0 950.5 -0.2 44
2019-06-18 02:00:00 16 5 Sudoeste 13 Sudoeste 0 950.7 0.3 40
2019-06-18 01:00:00 17.6 7 Sudoeste 13 Sudoeste 0 950.9 0.9 29
2019-06-18 00:00:00 17.9 3 Sudeste 13 Sudeste 0 950.7 1.3 26
2019-06-17 23:00:00 20.4 9 Sudeste 15 Oeste 0 950.4 1.4 27
2019-06-17 22:00:00 24.3 5 Noroeste 22 Sur 0 950 1.4 20
2019-06-17 21:00:00 28.7 17 Sur 30 Sur 0 949.4 0.7 16
2019-06-17 20:00:00 30.7 19 Sur 32 Sur 0 949 0 16
2019-06-17 19:00:00 32.2 21 Sur 35 Sudoeste 0 948.6 -0.9 14
2019-06-17 18:00:00 33 18 Sur 33 Sudoeste 0 948.7 -1.4 14
2019-06-17 17:00:00 32.8 8 Sudoeste 33 Oeste 0 949 -2 20
2019-06-17 16:00:00 33 13 Oeste 26 Oeste 0 949.5 -2 20
2019-06-17 15:00:00 31.5 6 Sudoeste 22 Noroeste 0 950.1 -1.9 21
2019-06-17 14:00:00 30.2 9 Oeste 22 Oeste 0 951 -1.3 24
2019-06-17 13:00:00 28.7 5 Oeste 15 Norte 0 951.5 -1.3 24
2019-06-17 12:00:00 25.9 3 Noroeste 11 Noroeste 0 952 -1.3 31
2019-06-17 11:00:00 23 2 Norte 8 Norte 0 952.3 -1.1 37
2019-06-17 10:00:00 20.6 0 Calma 5 Sudeste 0 952.8 -0.1 42
2019-06-17 09:00:00 16.3 0 Calma 5 Norte 0 953.3 0.4 52
2019-06-17 08:00:00 12.7 3 Oeste 8 Oeste 0 953.4 0.6 60
2019-06-17 07:00:00 10.5 2 Sudoeste 8 Oeste 0 952.9 -0.2 66
2019-06-17 06:00:00 10.6 5 Sudoeste 8 Sudoeste 0 952.9 -0.6 65
2019-06-17 05:00:00 11.4 0 Calma 2 Sur 0 952.8 -0.9 62
2019-06-17 04:00:00 11.9 0 Calma -- -- 0 953.1 -0.7 58
2019-06-17 03:00:00 13 0 Calma 5 Sudoeste 0 953.5 -0.1 55
2019-06-17 02:00:00 14.7 3 Sudoeste 5 Sudoeste 0 953.7 0.5 50
2019-06-17 01:00:00 16.2 5 Sudoeste 11 Sudoeste 0 953.8 1.6 49
2019-06-17 00:00:00 19.8 2 Sur 8 Sur 0 953.6 2 39
2019-06-16 23:00:00 20.3 2 Noroeste 26 Sur 0 953.2 2 42
2019-06-16 22:00:00 22.4 12 Sur 21 Sur 0 952.2 1.7 40
2019-06-16 21:00:00 26 15 Sudoeste 28 Sudoeste 0 951.6 0.9 30
2019-06-16 20:00:00 28.7 22 Sudoeste 30 Sudoeste 0 951.2 0.4 24
2019-06-16 19:00:00 31.4 10 Sudoeste 22 Sudoeste 0 950.5 -0.5 19
2019-06-16 18:00:00 31.4 12 Oeste 33 Oeste 0 950.7 -0.6 17
2019-06-16 17:00:00 31.1 13 Sudoeste 33 Sudoeste 0 950.8 -0.9 16
2019-06-16 16:00:00 30.8 14 Sur 24 Sur 0 951 -0.8 18
2019-06-16 15:00:00 30.1 6 Norte 18 Norte 0 951.3 -1 20
2019-06-16 14:00:00 29.1 6 Noroeste 15 Noroeste 0 951.7 -0.9 22
2019-06-16 13:00:00 27.1 8 Noroeste 17 Norte 0 951.8 -0.5 26
2019-06-16 12:00:00 25.7 2 Norte 13 Norte 0 952.3 -0.2 26
2019-06-16 11:00:00 22.8 3 Noroeste 11 Noroeste 0 952.6 0.4 30
2019-06-16 10:00:00 17.4 0 Calma 5 Noroeste 0 952.3 0.4 43
2019-06-16 09:00:00 16 2 Sudoeste 11 Sudoeste 0 952.5 1 44
2019-06-16 08:00:00 12.6 0 Calma 8 Sur 0 952.2 0.9 52
2019-06-16 07:00:00 9.7 0 Calma 4 Oeste 0 951.9 0.3 59
2019-06-16 06:00:00 10.3 2 Sur 8 Sudoeste 0 951.5 -0.4 55
2019-06-16 05:00:00 11.6 7 Sudoeste 8 Sudoeste 0 951.3 -1 50
2019-06-16 04:00:00 12.6 3 Sudoeste 4 Sudoeste 0 951.6 -1.1 47
2019-06-16 03:00:00 13.4 2 Sur 8 Sur 0 951.9 -0.9 47
2019-06-16 02:00:00 16.7 0 Calma 11 Sudoeste 0 952.3 -0.1 40
2019-06-16 01:00:00 18.7 11 Sudoeste 15 Sudoeste 0 952.7 1.2 34
2019-06-16 00:00:00 19.8 11 Sudoeste 15 Sur 0 952.8 1.9 31
2019-06-15 23:00:00 20.8 8 Sudoeste 18 Sudoeste 0 952.4 1.8 31
2019-06-15 22:00:00 23.2 2 Noroeste 26 Oeste 0 951.5 1.1 27
2019-06-15 21:00:00 26.5 21 Oeste 32 Oeste 0 950.9 0.4 21
2019-06-15 20:00:00 28.9 21 Oeste 32 Oeste 0 950.6 -0.1 18
2019-06-15 19:00:00 30.2 22 Oeste 33 Oeste 0 950.4 -0.8 17
2019-06-15 18:00:00 30.9 21 Oeste 33 Oeste 0 950.5 -1.2 15
2019-06-15 17:00:00 30.6 20 Oeste 35 Oeste 0 950.7 -1.8 16
2019-06-15 16:00:00 30 15 Oeste 30 Oeste 0 951.2 -1.8 19
2019-06-15 15:00:00 28.7 11 Noroeste 26 Oeste 0 951.7 -1.7 20
2019-06-15 14:00:00 26.3 9 Noroeste 18 Noroeste 0 952.5 -1 22
2019-06-15 13:00:00 24 5 Norte 22 Norte 0 953 -0.8 32
2019-06-15 12:00:00 21.6 5 Norte 17 Noroeste 0 953.4 -0.5 41
2019-06-15 11:00:00 19.1 5 Norte 13 Sudoeste 0 953.5 -0.1 46
2019-06-15 10:00:00 16.8 3 Sudoeste 11 Sudoeste 0 953.8 0.5 54
2019-06-15 09:00:00 13.6 3 Noroeste 5 Noroeste 0 953.9 0.9 62
2019-06-15 08:00:00 10.8 3 Oeste 5 Oeste 0 953.6 0.7 74
2019-06-15 07:00:00 8.8 0 Calma 4 Oeste 0 953.3 0.2 77
2019-06-15 06:00:00 10.7 0 Calma 8 Sudoeste 0 953 0 72
2019-06-15 05:00:00 11.5 5 Sudoeste 15 Sudoeste 0 952.9 -0.2 71
2019-06-15 04:00:00 12.5 9 Oeste 21 Oeste 0 953.1 0 68
2019-06-15 03:00:00 13.2 12 Oeste 21 Oeste 0 953 0.3 66
2019-06-15 02:00:00 13.5 10 Oeste 18 Oeste 0 953.1 0.9 61
2019-06-15 01:00:00 14.8 4 Sudoeste 11 Sudoeste 0 953.1 1.5 53
2019-06-15 00:00:00 16.3 2 Norte 18 Sudoeste 0 952.7 2.1 47
2019-06-14 23:00:00 17.3 13 Sudoeste 24 Sudoeste 0 952.2 2 43
2019-06-14 22:00:00 18.9 13 Oeste 28 Oeste 0 951.6 2 38
2019-06-14 21:00:00 21.5 23 Oeste 32 Oeste 0 950.6 1 34
2019-06-14 20:00:00 22.2 18 Oeste 41 Oeste 0 950.2 0.9 34
2019-06-14 19:00:00 23.6 26 Oeste 39 Oeste 0 949.6 0.4 32
2019-06-14 18:00:00 25.3 23 Oeste 41 Oeste 0 949.6 0.4 29
2019-06-14 17:00:00 25.8 23 Oeste 37 Noroeste 0 949.3 0 29
2019-06-14 16:00:00 25.5 22 Noroeste 41 Noroeste 0 949.2 0.2 31
2019-06-14 15:00:00 25.5 27 Oeste 39 Oeste 0 949.2 0.3 34
2019-06-14 14:00:00 25.4 23 Oeste 37 Oeste 0 949.3 0.6 40
2019-06-14 13:00:00 26.1 19 Oeste 33 Oeste 0 949 0.1 33
2019-06-14 12:00:00 25.4 14 Oeste 33 Oeste 0 948.9 0.2 25
2019-06-14 11:00:00 23.4 10 Sudoeste 18 Sudoeste 0 948.7 0.8 43
2019-06-14 10:00:00 20.7 6 Noroeste 13 Noroeste 0 948.9 1.5 62
2019-06-14 09:00:00 17.9 5 Oeste 22 Oeste 0 948.7 1.5 72
2019-06-14 08:00:00 17.5 10 Oeste 21 Oeste 0 947.9 1 74
2019-06-14 07:00:00 17.3 6 Oeste 13 Sudoeste 0 947.4 0.3 72
2019-06-14 06:00:00 15.9 3 Sur 8 Sudoeste 0 947.2 -0.3 77
2019-06-14 05:00:00 17.4 2 Oeste 5 Oeste 0 946.9 -0.8 73
2019-06-14 04:00:00 18.6 3 Sur 18 Sudoeste 0 947.1 -0.1 70
2019-06-14 03:00:00 19.1 14 Sudoeste 30 Sudoeste 0 947.5 1 66
2019-06-14 02:00:00 19.7 19 Sudoeste 32 Sudoeste 0 947.7 1.8 63
2019-06-14 01:00:00 20 15 Sudoeste 24 Sudoeste 0 947.2 2.4 61
2019-06-14 00:00:00 21.5 19 Oeste 33 Oeste 0 946.5 2.7 54
2019-06-13 23:00:00 22.2 4 Sudeste 24 Oeste 0 945.9 2.9 56
2019-06-13 22:00:00 23.5 17 Oeste 32 Oeste 0 944.8 2.2 48
2019-06-13 21:00:00 24.9 22 Oeste 41 Oeste 0 943.8 1.2 45
2019-06-13 20:00:00 26.8 29 Oeste 41 Oeste 0 943 0.3 41
2019-06-13 19:00:00 28.5 25 Oeste 37 Oeste 0 942.6 -0.7 36
2019-06-13 18:00:00 29.4 19 Oeste 46 Oeste 0 942.6 -1.1 34
2019-06-13 17:00:00 29.8 17 Oeste 30 Oeste 0 942.7 -1.5 33
2019-06-13 16:00:00 29.4 15 Oeste 28 Oeste 0 943.3 -1.1 33
2019-06-13 15:00:00 28.3 10 Noroeste 24 Noroeste 0 943.7 -1.3 35
2019-06-13 14:00:00 26.9 7 Oeste 22 Norte 0 944.2 -1.2 38
2019-06-13 13:00:00 25.5 13 Noroeste 26 Noroeste 0 944.4 -1.1 42
2019-06-13 12:00:00 23.9 5 Sudoeste 15 Oeste 0 945 -0.7 45
2019-06-13 11:00:00 21.7 2 Norte 13 Norte 0 945.4 -0.8 53
2019-06-13 10:00:00 20.1 0 Calma 8 Oeste 0 945.5 -0.1 60
2019-06-13 09:00:00 17 0 Calma 5 Oeste 0 945.7 0.3 73
2019-06-13 08:00:00 13.8 8 Oeste 18 Sur 0 946.2 0.5 85
2019-06-13 07:00:00 12.9 6 Sur 13 Sudoeste 0 945.6 0 88
2019-06-13 06:00:00 13.1 0 Calma 5 Nordeste 0 945.4 -0.6 84
2019-06-13 05:00:00 14 0 Calma 5 Este 0 945.7 -0.4 83
2019-06-13 04:00:00 14.8 4 Oeste 13 Sur 0 945.6 -0.7 79
2019-06-13 03:00:00 16.3 5 Sudeste 22 Sudoeste 0 946 0.2 77
2019-06-13 02:00:00 17.1 19 Sudoeste 28 Sudoeste 0 946.1 0.3 74
2019-06-13 01:00:00 17.4 9 Sur 33 Sur 0 946.3 1.4 70
2019-06-13 00:00:00 18 23 Sur 33 Sur 0 945.8 1.5 69
2019-06-12 23:00:00 18.5 8 Sur 17 Sudeste 0 945.8 1.9 61
2019-06-12 22:00:00 21.8 11 Sudoeste 21 Oeste 0 944.9 1.1 44
2019-06-12 21:00:00 25.2 5 Sudoeste 28 Sur 0 944.3 0.1 37
2019-06-12 20:00:00 26.9 17 Sur 35 Sudeste 0 943.9 -0.7 34
2019-06-12 19:00:00 27.4 19 Sur 30 Sudeste 0 943.8 -1.2 35
2019-06-12 18:00:00 27.6 13 Sudeste 24 Sudeste 0 944.2 -1.4 35
2019-06-12 17:00:00 27.9 8 Sudeste 21 Norte 0 944.6 -1.7 30
2019-06-12 16:00:00 27.5 6 Noroeste 22 Norte 0 945 -1.8 32
2019-06-12 15:00:00 26.9 4 Nordeste 21 Oeste 0 945.6 -1.6 33
2019-06-12 14:00:00 25.9 12 Noroeste 22 Oeste 0 946.3 -1.1 39
2019-06-12 13:00:00 24.3 5 Nordeste 21 Norte 0 946.8 -0.7 44
2019-06-12 12:00:00 23.9 9 Este 21 Este 0 947.2 -0.4 45
2019-06-12 11:00:00 21.5 4 Oeste 11 Noroeste 0 947.4 0.1 50
2019-06-12 10:00:00 19.7 4 Norte 11 Nordeste 0 947.5 0.6 52
2019-06-12 09:00:00 16.9 0 Calma 5 Norte 0 947.6 1.2 58
2019-06-12 08:00:00 13.4 0 Calma 4 Norte 0 947.3 1.3 68
2019-06-12 07:00:00 11.6 3 Sur 4 Sur 0 946.9 1.3 71
2019-06-12 06:00:00 12.9 0 Calma -- -- -- 946.4 1 70
2019-06-12 05:00:00 14 5 Oeste 11 Oeste 0 946 0.4 67
2019-06-12 04:00:00 15 6 Noroeste 21 Norte 0 945.6 -0.2 62
2019-06-12 03:00:00 17.7 7 Noroeste 26 Oeste 0 945.4 -0.2 46
2019-06-12 02:00:00 17.5 10 Oeste 21 Oeste 0 945.6 0.2 55
2019-06-12 01:00:00 17.1 4 Oeste 24 Oeste 0 945.8 0.9 45
2019-06-12 00:00:00 17.6 12 Sudoeste 13 Sur 0 945.6 0.9 42
2019-06-11 23:00:00 19.1 6 Sudoeste 11 Noroeste 0 945.4 1 40
2019-06-11 22:00:00 22.2 2 Noroeste 15 Norte 0 944.9 0.8 35
2019-06-11 21:00:00 25 12 Noroeste 24 Noroeste 0 944.7 0.6 30
2019-06-11 20:00:00 26.2 16 Norte 35 Norte 0 944.4 0.5 28
2019-06-11 19:00:00 26.7 25 Norte 35 Norte 0 944.1 -0.1 28
2019-06-11 18:00:00 27.6 22 Norte 48 Oeste 0 944.1 -0.3 27
2019-06-11 17:00:00 28.1 27 Oeste 39 Oeste 0 943.9 -0.9 26
2019-06-11 16:00:00 28 22 Oeste 37 Oeste 0 944.2 -1.1 24
2019-06-11 15:00:00 27.5 23 Oeste 41 Oeste 0 944.4 -1.4 24
2019-06-11 14:00:00 27.3 23 Oeste 37 Oeste 0 944.8 -1.2 20
2019-06-11 13:00:00 25.8 13 Oeste 28 Oeste 0 945.3 -1.3 25
2019-06-11 12:00:00 24.4 13 Sudoeste 26 Oeste 0 945.8 -1 29
2019-06-11 11:00:00 21.5 0 Calma 11 Noroeste 0 946 -1.1 42
2019-06-11 10:00:00 18.8 0 Calma 8 Norte 0 946.6 -0.5 50
2019-06-11 09:00:00 16.4 0 Calma 17 Sudoeste 0 946.8 -0.5 56
2019-06-11 08:00:00 13.2 2 Oeste 4 Oeste 0 947.1 -0.4 65
2019-06-11 07:00:00 11 3 Sur 5 Sudoeste 0 947.1 -0.8 71
2019-06-11 06:00:00 11.5 0 Calma 9 Oeste 0 947.3 -1 69
2019-06-11 05:00:00 12.5 5 Oeste -- -- 0 947.5 -1.3 68
2019-06-11 04:00:00 14 4 Oeste -- -- 0 947.9 -1.2 62
2019-06-11 03:00:00 15.7 5 Oeste 18 Sudoeste 0 948.3 -1 57
2019-06-11 02:00:00 16.4 13 Sudoeste 18 Sudoeste 0 948.8 0 55
2019-06-11 01:00:00 17.3 7 Sudoeste 22 Oeste 0 949.1 0.9 51
2019-06-11 00:00:00 18.7 8 Sudoeste 24 Oeste 0 949.3 1.3 45
2019-06-10 23:00:00 18.9 13 Sudoeste 22 Oeste 0 948.8 1.1 39
2019-06-10 22:00:00 21.2 6 Oeste 18 Noroeste 0 948.2 0.5 32
2019-06-10 21:00:00 24.7 14 Noroeste 30 Noroeste 0 948 0.1 27
2019-06-10 20:00:00 26.8 18 Oeste 37 Oeste 0 947.7 -0.3 18
2019-06-10 19:00:00 27.3 25 Oeste 39 Oeste 0 947.7 -0.7 20
2019-06-10 18:00:00 28.2 29 Oeste 42 Oeste 0 947.9 -1 21
2019-06-10 17:00:00 28 27 Oeste 39 Oeste 0 948 -1.5 23
2019-06-10 16:00:00 27.8 27 Oeste 42 Oeste 0 948.4 -1.7 26
2019-06-10 15:00:00 27.6 15 Oeste 35 Sudoeste 0 948.9 -1.6 24
2019-06-10 14:00:00 26.9 13 Oeste 26 Oeste 0 949.5 -1.3 27
2019-06-10 13:00:00 25.4 8 Noroeste 26 Oeste 0 950.1 -1.5 28
2019-06-10 12:00:00 24.4 12 Noroeste 26 Noroeste 0 950.5 -1 32
2019-06-10 11:00:00 22.2 4 Oeste 11 Oeste 0 950.8 -0.5 38
2019-06-10 10:00:00 19.1 3 Oeste 11 Oeste 0 951.6 0.2 46
2019-06-10 09:00:00 16.4 4 Oeste 11 Oeste 0 951.5 0.2 54
2019-06-10 08:00:00 13.8 0 Calma 8 Noroeste 0 951.3 -0.4 62
2019-06-10 07:00:00 11.9 6 Sudoeste 15 Oeste 0 951.4 -0.5 67
2019-06-10 06:00:00 12.2 4 Sudoeste 8 Sudoeste 0 951.3 -0.9 64
2019-06-10 05:00:00 13 3 Sudoeste 11 Oeste 0 951.7 -0.5 60
2019-06-10 04:00:00 14.2 9 Oeste 15 Oeste 0 951.9 -0.2 53
2019-06-10 03:00:00 15.4 10 Oeste 17 Oeste 0 952.2 0.3 49
2019-06-10 02:00:00 16.9 14 Oeste 24 Oeste 0 952.2 0.7 41
2019-06-10 01:00:00 18.1 15 Oeste 24 Oeste 0 952.1 1 36
2019-06-10 00:00:00 19.1 14 Oeste 24 Oeste 0 951.9 1.2 33
2019-06-09 23:00:00 18.8 12 Oeste 21 Oeste 0 951.5 1.1 40
2019-06-09 22:00:00 21.6 14 Oeste 30 Oeste 0 951.1 1.2 33
2019-06-09 21:00:00 24.1 19 Oeste 33 Oeste 0 950.7 0.7 29
2019-06-09 20:00:00 26 24 Oeste 35 Oeste 0 950.4 0.3 26
2019-06-09 19:00:00 26.9 25 Oeste 39 Oeste 0 949.9 -0.5 29
2019-06-09 18:00:00 28 26 Oeste 41 Oeste 0 950 -0.8 30
2019-06-09 17:00:00 28.5 24 Oeste 42 Oeste 0 950.1 -1.2 27
2019-06-09 16:00:00 28.1 21 Oeste 33 Oeste 0 950.4 -1.5 29
2019-06-09 15:00:00 27.7 15 Oeste 35 Noroeste 0 950.8 -1.4 34
2019-06-09 14:00:00 26.7 14 Noroeste 24 Oeste 0 951.3 -1.1 34
2019-06-09 13:00:00 25 5 Sudoeste 22 Norte 0 951.9 -0.5 40
2019-06-09 12:00:00 23.6 6 Noroeste 17 Noroeste 0 952.2 -0.4 50
2019-06-09 11:00:00 21.6 3 Noroeste 13 Noroeste 0 952.4 -0.4 54
2019-06-09 10:00:00 20.8 3 Norte 11 Norte 0 952.4 -0.3 62
2019-06-09 09:00:00 18.5 3 Oeste 13 Oeste 0 952.6 0.2 73
2019-06-09 08:00:00 17.4 7 Oeste 15 Oeste 0 952.8 0.5 78
2019-06-09 07:00:00 17 5 Sudoeste 11 Sudoeste 0 952.7 0.3 77
2019-06-09 06:00:00 16.9 3 Oeste 5 Oeste 0 952.4 -0.4 77
2019-06-09 05:00:00 17.5 2 Oeste 8 Sudoeste 0 952.3 -0.7 74
2019-06-09 04:00:00 17.5 3 Sudoeste 8 Sur 0 952.4 -0.7 75
2019-06-09 03:00:00 17.6 5 Sudoeste 11 Sudoeste 0 952.8 -0.5 77
2019-06-09 02:00:00 18.3 0 Calma 8 Sur 0 953 0.3 72
2019-06-09 01:00:00 19.4 2 Sudoeste 15 Sudeste 0 953.1 1.3 70
2019-06-09 00:00:00 20 9 Sur 17 Sur 0 953.3 2.2 68
2019-06-08 23:00:00 20.6 5 Sudeste 13 Sudeste 0 952.7 2.3 62
2019-06-08 22:00:00 21.6 7 Sudoeste 26 Sudoeste 0 951.8 1.7 58
2019-06-08 21:00:00 23.7 21 Sudoeste 30 Sur 0 951.1 1.2 51
2019-06-08 20:00:00 26.5 16 Sur 32 Sur 0 950.4 0.3 46
2019-06-08 19:00:00 27.4 17 Sur 35 Sudeste 0 950.1 -0.3 44
2019-06-08 18:00:00 30.4 13 Sudoeste 30 Noroeste 0 949.9 -0.7 27
2019-06-08 17:00:00 31.6 6 Sur 30 Noroeste 0 950.1 -1.2 24
2019-06-08 16:00:00 31.3 12 Oeste 26 Noroeste 0 950.4 -1.2 23
2019-06-08 15:00:00 30.6 9 Oeste 24 Oeste 0 950.6 -1.6 24
2019-06-08 14:00:00 29.6 6 Noroeste 24 Noroeste 0 951.3 -1.2 26
2019-06-08 13:00:00 28.5 2 Este 18 Norte 0 951.6 -0.8 26
2019-06-08 12:00:00 25.9 3 Nordeste 15 Nordeste 0 952.2 -0.3 31
2019-06-08 11:00:00 23.1 4 Norte 11 Norte 0 952.5 0.2 33
2019-06-08 10:00:00 20.2 0 Calma 5 Este 0 952.4 0.2 37
2019-06-08 09:00:00 16 2 Noroeste 5 Norte 0 952.5 0.3 47
2019-06-08 08:00:00 12.2 0 Calma 4 Sur 0 952.3 0.3 54
2019-06-08 07:00:00 9.5 0 Calma 5 Sudoeste 0 952.2 0.3 62
2019-06-08 06:00:00 10.3 3 Sudoeste 11 Sur 0 952.2 0.1 57
2019-06-08 05:00:00 10.9 0 Calma 8 Sur 0 952 -0.2 56
2019-06-08 04:00:00 11.3 0 Calma 8 Sudoeste 0 951.9 -0.1 53
2019-06-08 03:00:00 12.4 3 Sur 5 Sur 0 952.1 -0.1 50
2019-06-08 02:00:00 13.9 0 Calma 13 Sudoeste 0 952.2 0.5 47
2019-06-08 01:00:00 16.3 9 Sur 13 Sur 0 952 0.9 39
2019-06-08 00:00:00 16.8 11 Sudoeste 13 Sudoeste 0 952.2 1.8 41
2019-06-07 23:00:00 18.5 5 Sudoeste 11 Sudoeste 0 951.7 1.8 39
2019-06-07 22:00:00 20.9 5 Oeste 18 Noroeste 0 951.1 1.5 35
2019-06-07 21:00:00 24.5 14 Oeste 28 Oeste 0 950.4 0.9 30
2019-06-07 20:00:00 26.5 20 Oeste 32 Oeste 0 949.9 0.2 29
2019-06-07 19:00:00 27.6 19 Oeste 32 Oeste 0 949.6 -0.4 28
2019-06-07 18:00:00 28.1 17 Oeste 35 Noroeste 0 949.5 -0.6 26
2019-06-07 17:00:00 28.3 17 Noroeste 32 Oeste 0 949.7 -0.8 21
2019-06-07 16:00:00 26.8 14 Oeste 33 Noroeste 0 950 -0.8 31
2019-06-07 15:00:00 25.7 12 Oeste 26 Oeste 0 950.1 -0.6 37
2019-06-07 14:00:00 24.8 14 Oeste 26 Oeste 0 950.5 -0.3 40
2019-06-07 13:00:00 23.4 6 Oeste 21 Noroeste 0 950.8 0 43
2019-06-07 12:00:00 22 5 Noroeste 22 Noroeste 0 950.7 0.1 47
2019-06-07 11:00:00 20.1 6 Noroeste 18 Noroeste 0 950.8 0.6 51
2019-06-07 10:00:00 17.8 2 Sur 13 Oeste 0 950.8 1 55
2019-06-07 09:00:00 16.6 0 Calma 8 Norte 0 950.6 1.4 55
2019-06-07 08:00:00 13 3 Este 8 Sur 0 950.2 1.2 62
2019-06-07 07:00:00 11.2 6 Oeste 11 Oeste 0 949.8 1.2 65
2019-06-07 06:00:00 12.6 7 Oeste 15 Oeste 0 949.2 0.7 61
2019-06-07 05:00:00 13.5 9 Oeste 26 Oeste 0 949 0.8 56
2019-06-07 04:00:00 13.9 15 Sudoeste 24 Sudoeste 0 948.6 0.7 49
2019-06-07 03:00:00 14.7 14 Sudoeste 22 Oeste 0 948.5 1 43
2019-06-07 02:00:00 15 14 Sudoeste 21 Sudoeste 0 948.2 1.1 38
2019-06-07 01:00:00 15.8 5 Sudoeste 13 Sudoeste 0 947.9 1.6 34
2019-06-07 00:00:00 17.1 4 Sudoeste 15 Sudoeste 0 947.5 2.1 32
2019-06-06 23:00:00 19 8 Sudoeste 26 Oeste 0 947.1 2.3 34
2019-06-06 22:00:00 21.1 21 Oeste 35 Oeste 0 946.3 1.9 31
2019-06-06 21:00:00 24.3 20 Oeste 33 Oeste 0 945.4 -- 26
2019-06-06 20:00:00 27.1 19 Oeste 28 Oeste 0 944.8 -- 21
2019-06-06 19:00:00 28.6 15 Sudoeste 30 Sudoeste 0 944.4 -1.2 13
2019-06-06 18:00:00 29.3 22 Sudoeste 37 Oeste 0 -- -- --
2019-06-06 17:00:00 29.4 25 Oeste 37 Oeste 0 -- -- 9
2019-06-06 16:00:00 29.4 23 Sudoeste 33 Oeste 0 945.6 -1.7 13
2019-06-06 15:00:00 27.6 10 Oeste 28 Norte 0 946.3 -1.8 22
2019-06-06 14:00:00 26.4 8 Oeste 24 Oeste 0 946.8 -1.9 23
2019-06-06 13:00:00 23.9 5 Noroeste 17 Noroeste 0 947.3 -1.8 27
2019-06-06 12:00:00 21.3 4 Nordeste 15 Noroeste 0 948.1 -1.3 32
2019-06-06 11:00:00 19 4 Norte 13 Norte 0 948.7 -0.7 38
2019-06-06 10:00:00 16.4 0 Calma 8 Norte 0 949.1 -0.1 45
2019-06-06 09:00:00 12.6 0 Calma 5 Norte 0 949.4 0.3 55
2019-06-06 08:00:00 9.8 4 Oeste 18 Sur 0 949.4 0.5 63
2019-06-06 07:00:00 7.6 5 Sudoeste 8 Sudoeste 0 949.2 0.1 73
2019-06-06 06:00:00 7.5 0 Calma 5 Sudoeste 0 949.1 -0.3 71
2019-06-06 05:00:00 8.8 0 Calma 4 Sudoeste 0 948.9 -0.7 66
2019-06-06 04:00:00 10.5 0 Calma 5 Norte 0 949.1 -0.5 55
2019-06-06 03:00:00 11.4 0 Calma 8 Sudoeste 0 949.4 -0.3 50
2019-06-06 02:00:00 11.7 4 Oeste 13 Sur 0 949.6 0.5 48
2019-06-06 01:00:00 13 6 Sur 11 Sur 0 949.6 1.1 45
2019-06-06 00:00:00 13.8 6 Sudoeste 8 Sudoeste 0 949.7 1.6 45
2019-06-05 23:00:00 16.7 0 Calma 8 Oeste 0 949.1 1.2 39
2019-06-05 22:00:00 18.4 6 Noroeste 22 Norte 0 948.5 0.7 34
2019-06-05 21:00:00 21.3 14 Noroeste 28 Noroeste 0 948.1 0.2 29
2019-06-05 20:00:00 21.4 15 Noroeste 30 Norte 0 947.9 -0.2 28
2019-06-05 19:00:00 22.6 20 Norte 32 Noroeste 0 947.8 -0.2 26
2019-06-05 18:00:00 23.4 21 Norte 32 Norte 0 947.9 -0.5 25
2019-06-05 17:00:00 23.2 17 Noroeste 35 Noroeste 0 948.1 -0.7 24
2019-06-05 16:00:00 23.8 21 Noroeste 37 Noroeste 0 948 -0.8 22
2019-06-05 15:00:00 22.4 20 Norte 33 Norte 0 948.4 -0.8 25
2019-06-05 14:00:00 22.4 18 Noroeste 35 Norte 0 948.8 -0.3 23
2019-06-05 13:00:00 21.3 7 Oeste 22 Norte 0 948.8 -0.3 26
2019-06-05 12:00:00 20 9 Norte 35 Noroeste 0 949.2 0.7 32
2019-06-05 11:00:00 18.8 12 Oeste 33 Sudoeste 0 949.1 1 36
2019-06-05 10:00:00 17.7 14 Oeste 37 Oeste 0 949.1 1.7 41
2019-06-05 09:00:00 16.6 27 Oeste 35 Oeste 0 948.5 1.6 43
2019-06-05 08:00:00 15.9 19 Oeste 28 Oeste 0 948.1 1.5 60
2019-06-05 07:00:00 15.4 19 Oeste 35 Oeste 0 947.4 0.8 67
2019-06-05 06:00:00 16.6 21 Oeste 32 Oeste 0 946.9 0.3 67
2019-06-05 05:00:00 17.5 21 Oeste 32 Oeste 0 946.6 0 71
2019-06-05 04:00:00 17.6 17 Oeste 46 Oeste 0 946.6 0.1 73
2019-06-05 03:00:00 18.2 30 Oeste 46 Oeste 0 946.6 0.4 68
2019-06-05 02:00:00 19.4 19 Oeste 41 Oeste 0 946.6 0.7 62
2019-06-05 01:00:00 20.6 24 Oeste 39 Oeste 0 946.5 1.4 52
2019-06-05 00:00:00 21.4 17 Oeste 26 Oeste 0 946.2 1.5 49
2019-06-04 23:00:00 22.8 16 Oeste 30 Oeste 0 945.9 1.3 46
2019-06-04 22:00:00 24.9 18 Oeste 30 Oeste 0 945.1 0.6 41
2019-06-04 21:00:00 27.3 19 Oeste 33 Oeste 0 944.7 -0.1 33
2019-06-04 20:00:00 29 17 Oeste 42 Noroeste 0 944.6 -0.7 28
2019-06-04 19:00:00 30.9 23 Oeste 37 Oeste 0 944.5 -1.6 25
2019-06-04 18:00:00 32.5 19 Oeste 39 Oeste 0 944.8 -2.1 20
2019-06-04 17:00:00 32.8 15 Oeste 39 Oeste 0 945.3 -2.4 18
2019-06-04 16:00:00 32.9 18 Oeste 33 Noroeste 0 946.1 -2.3 17
2019-06-04 15:00:00 32.2 18 Oeste 37 Noroeste 0 946.9 -1.9 16
2019-06-04 14:00:00 31.1 13 Noroeste 33 Noroeste 0 947.7 -1.3 17
2019-06-04 13:00:00 30.3 17 Oeste 30 Noroeste 0 948.4 -0.9 18
2019-06-04 12:00:00 27.4 7 Oeste 17 Oeste 0 948.8 -0.6 20
2019-06-04 11:00:00 23.4 2 Norte 8 Noroeste 0 949 -0.3 30
2019-06-04 10:00:00 20.1 0 Calma 5 Norte 0 949.3 0.2 36
2019-06-04 09:00:00 16.3 2 Norte 5 Norte 0 949.4 0.5 45
2019-06-04 08:00:00 13.4 0 Calma 8 Oeste 0 949.3 0 44
2019-06-04 07:00:00 9.5 5 Oeste 8 Oeste 0 949.1 -0.6 52
2019-06-04 06:00:00 10.5 5 Sudoeste 8 Sudoeste 0 948.9 -1.3 51
2019-06-04 05:00:00 11.1 4 Sudoeste 5 Sudoeste 0 949.3 -1.2 47
2019-06-04 04:00:00 11.8 2 Sudoeste 5 Sudoeste 0 949.7 -1 51
2019-06-04 03:00:00 13.6 2 Sudoeste -- -- 0 950.2 -0.5 47
2019-06-04 02:00:00 14.3 0 Calma 5 Sudoeste 0 950.5 0.3 44
2019-06-04 01:00:00 16.1 3 Sur 8 Sur 0 950.7 0.9 38
2019-06-04 00:00:00 19.3 0 Calma 8 Este 0 950.7 1.1 33
2019-06-03 23:00:00 22.2 2 Nordeste 26 Sur 0 950.2 1 25
2019-06-03 22:00:00 25.2 14 Sur 17 Sudoeste 0 949.8 0.8 28
2019-06-03 21:00:00 29.9 7 Sudoeste 26 Sudoeste 0 949.6 0.5 19
2019-06-03 20:00:00 32.9 15 Sur 30 Sudoeste 0 949.2 0 11
2019-06-03 19:00:00 34.3 19 Sudoeste 32 Sudoeste 0 949 -0.7 12
2019-06-03 18:00:00 35.2 12 Sudoeste 42 Sudeste 0 949.1 -1.4 13
2019-06-03 17:00:00 35.2 22 Sur 48 Sur 0 949.2 -1.8 13
2019-06-03 16:00:00 35.5 19 Sudeste 32 Sudeste 0 949.7 -2 13
2019-06-03 15:00:00 33.1 8 Noroeste 28 Norte 0 950.5 -1.6 17
2019-06-03 14:00:00 32.7 8 Norte 17 Norte 0 951 -1.6 15
2019-06-03 13:00:00 30.5 3 Norte 13 Norte 0 951.7 -1.3 21
2019-06-03 12:00:00 28.5 3 Noroeste 11 Oeste 0 952.1 -0.8 23
2019-06-03 11:00:00 24.8 3 Noroeste 8 Noroeste 0 952.6 -0.3 32
2019-06-03 10:00:00 21.1 3 Noroeste 8 Noroeste 0 953 0.4 41
2019-06-03 09:00:00 17.4 0 Calma 8 Sudoeste 0 952.9 0.4 46
2019-06-03 08:00:00 13.3 4 Sudoeste 8 Oeste 0 952.9 0.3 62
2019-06-03 07:00:00 11.6 3 Oeste 8 Sudoeste 0 952.6 -0.2 64
2019-06-03 06:00:00 12.2 2 Oeste 5 Oeste 0 952.5 -0.6 65
2019-06-03 05:00:00 12.8 0 Calma 5 Sudoeste 0 952.6 -0.6 59
2019-06-03 04:00:00 14.2 0 Calma 4 Oeste 0 952.8 -0.7 56
2019-06-03 03:00:00 15.9 0 Calma 8 Sur 0 953.1 -0.3 46
2019-06-03 02:00:00 18.8 11 Sudeste 21 Este 0 953.2 0.5 44
2019-06-03 01:00:00 17.7 8 Sur 11 Sur 0 953.5 1.8 37
2019-06-03 00:00:00 21.5 9 Sur 18 Sur 0 953.4 2.4 33
2019-06-02 23:00:00 21.6 2 Este 17 Sur 0 952.7 2.5 24
2019-06-02 22:00:00 25.3 0 Calma 18 Sur 0 951.7 1.8 21
2019-06-02 21:00:00 29.2 14 Sur 26 Sur 0 951 1 16
2019-06-02 20:00:00 31.3 18 Sur 35 Sur 0 950.2 0 16
2019-06-02 19:00:00 32.5 24 Sur 37 Sur 0 949.9 -0.7 17
2019-06-02 18:00:00 34.8 15 Sur 35 Sur 0 950 -1.3 16
2019-06-02 17:00:00 35 7 Sur 18 Sudeste 0 950.2 -2 13
2019-06-02 16:00:00 33.8 3 Sudoeste 21 Este 0 950.6 -2.4 13
2019-06-02 15:00:00 33 7 Sudoeste 18 Oeste 0 951.3 -2 13
2019-06-02 14:00:00 31.6 5 Oeste 18 Sudoeste 0 952.2 -1.4 15
2019-06-02 13:00:00 29.4 6 Sudoeste 15 Sudoeste 0 953 -0.9 18
2019-06-02 12:00:00 26.5 4 Noroeste 11 Noroeste 0 953.3 -0.6 27
2019-06-02 11:00:00 23.1 2 Norte 11 Norte 0 953.6 -0.3 39
2019-06-02 10:00:00 20.1 4 Norte 9 Norte 0 953.9 0.1 47
2019-06-02 09:00:00 17 0 Calma 4 Sudeste 0 953.9 0.2 55
2019-06-02 08:00:00 12.8 3 Sudoeste 5 Sudoeste 0 953.9 0.3 69
2019-06-02 07:00:00 9.5 0 Calma 5 Sur 0 953.8 0 77
2019-06-02 06:00:00 11.4 0 Calma 8 Sur 0 953.7 -0.2 71
2019-06-02 05:00:00 12.1 4 Sudoeste 8 Sudoeste 0 953.6 -0.5 69
2019-06-02 04:00:00 13.9 0 Calma 11 Este 0 953.8 -0.5 62
2019-06-02 03:00:00 16.6 6 Este 15 Sur 0 953.9 -0.2 56
2019-06-02 02:00:00 19.1 13 Sur 30 Sudeste 0 954.1 0.4 47
2019-06-02 01:00:00 18.2 11 Este 17 Este 0 954.3 1.7 49
2019-06-02 00:00:00 19.6 5 Este 18 Sudeste 0 954.1 2.2 45
2019-06-01 23:00:00 21.5 6 Sudeste 24 Sur 0 953.7 2.3 37
2019-06-01 22:00:00 23.1 5 Sudoeste 26 Sur 0 952.6 1.7 33
2019-06-01 21:00:00 25.7 19 Sur 33 Sur 0 951.9 0.9 30
2019-06-01 20:00:00 28 22 Sur 39 Sur 0 951.4 0.1 26
2019-06-01 19:00:00 29.6 27 Sur 39 Sur 0 950.9 -0.9 24
2019-06-01 18:00:00 31.7 24 Sur 37 Sur 0 951 -1.4 21
2019-06-01 17:00:00 33.3 18 Sur 37 Sudeste 0 951.3 -2 18
2019-06-01 16:00:00 33.1 8 Noroeste 22 Oeste 0 951.8 -2.2 16
2019-06-01 15:00:00 31.3 4 Oeste 15 Este 0 952.4 -1.9 18
2019-06-01 14:00:00 30.4 4 Sudoeste 17 Oeste 0 953.3 -1.2 18
2019-06-01 13:00:00 29.2 4 Noroeste 13 Noroeste 0 954 -0.8 20
2019-06-01 12:00:00 26.7 3 Noroeste 15 Noroeste 0 954.3 -0.5 25
2019-06-01 11:00:00 24.2 5 Norte 13 Norte 0 954.5 -0.4 32
2019-06-01 10:00:00 20.6 2 Norte 11 Norte 0 954.8 0.2 44
2019-06-01 09:00:00 17.3 0 Calma 5 Norte 0 954.8 0.4 55
2019-06-01 08:00:00 13.4 0 Calma 9 Sur 0 954.9 0.7 65
2019-06-01 07:00:00 10.5 4 Sur 5 Sur 0 954.6 0.2 74
2019-06-01 06:00:00 10.7 3 Oeste 5 Noroeste 0 954.4 -0.2 72
2019-06-01 05:00:00 11.7 0 Calma 5 Sur 0 954.2 -0.8 69
2019-06-01 04:00:00 13.4 0 Calma 8 Norte 0 954.4 -0.8 65
2019-06-01 03:00:00 15.3 3 Este 18 Sudeste 0 954.6 -0.6 57
2019-06-01 02:00:00 15.9 3 Sudeste 11 Este 0 955 0.4 54
2019-06-01 01:00:00 18 3 Norte 13 Sur 0 955.2 1.4 46
2019-06-01 00:00:00 19.9 2 Nordeste 8 Este 0 955.2 2.3 42
2019-05-31 23:00:00 21 2 Nordeste 18 Sudoeste 0 954.6 2 39
2019-05-31 22:00:00 23.4 5 Norte 30 Sur 0 953.8 1.5 34
2019-05-31 21:00:00 26.2 21 Sur 41 Sur 0 952.9 0.5 28
2019-05-31 20:00:00 28.5 25 Sur 41 Sudeste 0 952.6 -0.1 25
2019-05-31 19:00:00 30.1 29 Sur 39 Sur 0 952.3 -0.9 23
2019-05-31 18:00:00 32.2 17 Sur 32 Sudeste 0 952.4 -1.4 20
2019-05-31 17:00:00 33.1 10 Sudoeste 24 Oeste 0 952.7 -1.7 16
2019-05-31 16:00:00 32.5 9 Sudoeste 21 Sudoeste 0 953.2 -1.7 16
2019-05-31 15:00:00 30.9 6 Sudeste 22 Oeste 0 953.8 -1.6 18
2019-05-31 14:00:00 30 4 Sur 18 Noroeste 0 954.4 -1.3 21
2019-05-31 13:00:00 28.1 3 Noroeste 15 Sudeste 0 954.9 -1 23
2019-05-31 12:00:00 26.3 5 Sudeste 17 Sur 0 955.4 -0.8 25
2019-05-31 11:00:00 23.3 3 Nordeste 13 Este 0 955.7 -0.3 33
2019-05-31 10:00:00 19.7 3 Norte 9 Norte 0 955.9 0.1 47
2019-05-31 09:00:00 16.3 2 Norte 5 Norte 0 956.2 0.5 56
2019-05-31 08:00:00 12.4 0 Calma 5 Sudoeste 0 956 0.1 70
2019-05-31 07:00:00 9.8 2 Sur 5 Sur 0 955.8 -0.2 78
2019-05-31 06:00:00 10.6 0 Calma 8 Noroeste 0 955.7 -0.6 74
2019-05-31 05:00:00 11.6 3 Sur 5 Sur 0 955.9 -0.9 67
2019-05-31 04:00:00 11.9 3 Sur 8 Sur 0 956 -1.2 72
2019-05-31 03:00:00 13 2 Norte 5 Nordeste 0 956.3 -1 71
2019-05-31 02:00:00 15.2 0 Calma 5 Sudeste 0 956.8 0 58
2019-05-31 01:00:00 16.2 0 Calma 5 Este 0 957.2 1.5 58
2019-05-31 00:00:00 17.8 0 Calma 8 Nordeste 0 957.3 2.5 54
2019-05-30 23:00:00 19.6 3 Sudoeste 21 Oeste 0 956.8 2.8 48
2019-05-30 22:00:00 20.6 5 Sudeste 26 Sur 0 955.7 2 46
2019-05-30 21:00:00 22.7 17 Sur 39 Sur 0 954.8 0.9 42
2019-05-30 20:00:00 25 27 Sudeste 39 Sur 0 954 -0.4 38
2019-05-30 19:00:00 28.3 26 Sur 35 Sur 0 953.7 -0.8 31
2019-05-30 18:00:00 29.6 14 Sur 28 Sudeste 0 953.9 -1 26
2019-05-30 17:00:00 30.3 18 Sudeste 32 Sudeste 0 954.4 -1.1 24
2019-05-30 16:00:00 30.1 18 Sudeste 28 Sudeste 0 954.5 -1.8 26
2019-05-30 15:00:00 29.2 9 Sudeste 21 Sudeste 0 954.9 -1.6 26
2019-05-30 14:00:00 27.7 5 Sur 21 Este 0 955.5 -1.3 29
2019-05-30 13:00:00 25.9 4 Este 17 Nordeste 0 956.3 -0.5 34
2019-05-30 12:00:00 24 5 Norte 17 Este 0 956.5 -0.3 41
2019-05-30 11:00:00 21.7 7 Nordeste 18 Norte 0 956.8 0.1 48
2019-05-30 10:00:00 20.1 6 Nordeste 15 Nordeste 0 956.8 0.7 52
2019-05-30 09:00:00 17.9 9 Este 17 Este 0 956.8 1.1 58
2019-05-30 08:00:00 16.1 5 Sudeste 18 Sudeste 0 956.7 1.2 66
2019-05-30 07:00:00 14.9 10 Este 18 Este 0 956.1 0.6 78
2019-05-30 06:00:00 14.5 5 Sudeste 17 Sudeste 0 955.7 0.2 77
2019-05-30 05:00:00 14.9 6 Sudeste 26 Sudeste 0 955.5 -0.1 75
2019-05-30 04:00:00 14.3 4 Sur 11 Sur 0 955.5 -0.1 73
2019-05-30 03:00:00 14.6 0 Calma 5 Sudoeste 0 955.5 0.6 68
2019-05-30 02:00:00 15.1 2 Sudeste 8 Sudeste 0 955.6 1.7 64
2019-05-30 01:00:00 16.3 2 Norte 13 Sur 0 955.6 2.9 63
2019-05-30 00:00:00 19 3 Sudeste 28 Sur 0 954.9 3.2 49
2019-05-29 23:00:00 20.1 19 Sur 33 Sur 0 953.9 3.1 51
2019-05-29 22:00:00 21.4 15 Sur 30 Sur 0 952.7 2.3 49
2019-05-29 21:00:00 25 19 Sudeste 30 Sur 0 951.7 1.4 40
2019-05-29 20:00:00 30.3 13 Nordeste 32 Norte 0 950.8 0 20
2019-05-29 19:00:00 31.8 20 Noroeste 33 Noroeste 0 950.4 -0.7 18
2019-05-29 18:00:00 32.5 15 Norte 28 Norte 0 950.3 -1.3 20
2019-05-29 17:00:00 32.4 6 Noroeste 26 Sudoeste 0 950.8 -1.2 21
2019-05-29 16:00:00 32 10 Sudoeste 26 Noroeste 0 951.1 -1.4 23
2019-05-29 15:00:00 30.8 4 Norte 21 Norte 0 951.6 -1 24
2019-05-29 14:00:00 29.7 7 Nordeste 18 Este 0 952 -0.8 26
2019-05-29 13:00:00 28.3 4 Sudoeste 18 Norte 0 952.5 -0.3 33
2019-05-29 12:00:00 26.8 6 Norte 18 Norte 0 952.6 0.1 37
2019-05-29 11:00:00 25.1 4 Nordeste 21 Este 0 952.8 1 41
2019-05-29 10:00:00 23.5 4 Noroeste 9 Noroeste 0 952.8 1.7 49
2019-05-29 09:00:00 20.2 0 Calma 8 Norte 0 952.5 1.9 55
2019-05-29 08:00:00 15.6 4 Oeste 11 Sur 0 951.8 1.8 58
2019-05-29 07:00:00 13.7 3 Sur 11 Sudeste 0 951.1 1.5 57
2019-05-29 06:00:00 14.1 2 Sur 9 Sur 0 950.6 1.1 55
2019-05-29 05:00:00 16.3 0 Calma 11 Noroeste 0 950 0.3 47
2019-05-29 04:00:00 18.1 5 Norte 11 Norte 0 949.6 0.2 42
2019-05-29 03:00:00 20.9 4 Norte -- -- -- 949.5 0.7 35
2019-05-29 02:00:00 20.6 3 Noroeste 17 Oeste 0 949.7 1.5 41
2019-05-29 01:00:00 21.7 6 Nordeste 18 Noroeste 0 949.4 1.8 40
2019-05-29 00:00:00 21.5 7 Sudoeste 13 Sudoeste 0 948.8 1.8 40
2019-05-28 23:00:00 23.1 6 Sudoeste 13 Sudoeste 0 948.2 1.6 36
2019-05-28 22:00:00 25.3 5 Oeste 13 Noroeste 0 947.6 1.3 34
2019-05-28 21:00:00 29.3 9 Noroeste 22 Noroeste 0 947 0.9 27
2019-05-28 20:00:00 31.7 15 Noroeste 32 Norte 0 946.6 0.5 20
2019-05-28 19:00:00 32.5 18 Noroeste 30 Norte 0 946.3 0 22
2019-05-28 18:00:00 33.5 20 Oeste 45 Sudoeste 0 946.1 -0.3 22
2019-05-28 17:00:00 34.1 14 Oeste 35 Oeste 0 946.1 -0.7 18
2019-05-28 16:00:00 34 23 Oeste 37 Sudoeste 0 946.3 -0.8 16
2019-05-28 15:00:00 33.3 15 Oeste 32 Oeste 0 946.4 -0.8 19
2019-05-28 14:00:00 32.5 12 Oeste 30 Oeste 0 946.8 -0.6 20
2019-05-28 13:00:00 31.4 14 Oeste 30 Oeste 0 947.1 -0.4 21
2019-05-28 12:00:00 29 2 Noroeste 8 Noroeste 0 947.2 -0.2 31
2019-05-28 11:00:00 25.2 0 Calma 11 Noroeste 0 947.4 0.1 37
2019-05-28 10:00:00 22.5 2 Nordeste 5 Nordeste 0 947.5 0.5 45
2019-05-28 09:00:00 18.8 2 Noroeste 5 Norte 0 947.4 0.7 54
2019-05-28 08:00:00 14.7 0 Calma 4 Oeste 0 947.3 0.7 66
2019-05-28 07:00:00 13.1 0 Calma 4 Sudoeste 0 947 0.1 68
2019-05-28 06:00:00 14.4 0 Calma 5 Sur 0 946.7 -0.2 63
2019-05-28 05:00:00 15.7 0 Calma 5 Sur 0 946.6 -0.4 58
2019-05-28 04:00:00 17.8 0 Calma 17 Sudoeste 0 946.9 -0.5 50
2019-05-28 03:00:00 18.4 10 Sur -- -- -- 946.9 -0.4 48
2019-05-28 02:00:00 19.3 7 Sur 11 Sur 0 947 0.4 46
2019-05-28 01:00:00 22.1 0 Calma 8 Norte 0 947.4 1.4 39
2019-05-28 00:00:00 21.8 2 Oeste 17 Sudoeste 0 947.3 1.6 38
2019-05-27 23:00:00 22.5 8 Sudoeste 15 Sudoeste 0 946.6 1.1 37
2019-05-27 22:00:00 24.5 5 Oeste 11 Oeste 0 946 0.5 33
2019-05-27 21:00:00 28.9 4 Noroeste 18 Noroeste 0 945.7 0.1 26
2019-05-27 20:00:00 30.7 12 Norte 28 Noroeste 0 945.5 -0.1 21
2019-05-27 19:00:00 31.3 15 Noroeste 30 Norte 0 945.5 -0.7 20
2019-05-27 18:00:00 31.9 21 Norte 33 Norte 0 945.6 -1.3 20
2019-05-27 17:00:00 31.8 18 Noroeste 33 Norte 0 945.6 -2 20
2019-05-27 16:00:00 32 5 Norte 28 Oeste 0 946.2 -2 19
2019-05-27 15:00:00 30.9 5 Sudoeste 26 Sudoeste 0 946.9 -1.8 20
2019-05-27 14:00:00 30.2 9 Oeste 18 Oeste 0 947.6 -1.5 21
2019-05-27 13:00:00 28.7 5 Sudeste 17 Sudeste 0 948.2 -1.2 22
2019-05-27 12:00:00 26.1 4 Noroeste 13 Noroeste 0 948.7 -0.8 25
2019-05-27 11:00:00 22.7 0 Calma 9 Norte 0 949.1 -0.6 32
2019-05-27 10:00:00 19.3 3 Norte 8 Noroeste 0 949.4 -0.1 38
2019-05-27 09:00:00 15.6 0 Calma 5 Sudoeste 0 949.5 0.3 51
2019-05-27 08:00:00 11.5 0 Calma 5 Sur 0 949.7 0.5 60
2019-05-27 07:00:00 8.9 4 Sudoeste 5 Sudoeste 0 949.5 0.2 67
2019-05-27 06:00:00 9.3 0 Calma 5 Sur 0 949.2 -0.5 65
2019-05-27 05:00:00 10.4 0 Calma 8 Sudoeste 0 949.2 -0.7 63
2019-05-27 04:00:00 11.3 9 Sudeste 13 Sudeste 0 949.3 -0.8 62
2019-05-27 03:00:00 11.6 9 Sudoeste -- -- -- 949.7 -0.4 63
2019-05-27 02:00:00 12.8 2 Sudoeste 4 Sudoeste 0 949.9 0.2 60
2019-05-27 01:00:00 14.7 0 Calma 5 Norte 0 950.1 1.1 52
2019-05-27 00:00:00 16.8 0 Calma 18 Sudeste 0 950.1 1.6 42
2019-05-26 23:00:00 18.6 11 Sur 26 Sur 0 949.7 1.6 32
2019-05-26 22:00:00 22.3 4 Norte 18 Norte 0 949 1 24
2019-05-26 21:00:00 25.8 13 Norte 26 Norte 0 948.5 0.2 20
2019-05-26 20:00:00 27.5 18 Norte 32 Noroeste 0 948.1 -0.5 22
2019-05-26 19:00:00 28.3 17 Norte 35 Noroeste 0 948 -0.8 24
2019-05-26 18:00:00 28.8 16 Noroeste 32 Norte 0 948.3 -1.4 25
2019-05-26 17:00:00 28.9 14 Noroeste 28 Noroeste 0 948.6 -1.7 24
2019-05-26 16:00:00 28.6 9 Noroeste 30 Oeste 0 948.8 -2 25
2019-05-26 15:00:00 27.8 9 Oeste 33 Oeste 0 949.7 -1.6 28
2019-05-26 14:00:00 26.9 8 Oeste 30 Oeste 0 950.3 -1.6 30
2019-05-26 13:00:00 25 6 Noroeste 18 Noroeste 0 950.8 -1.3 35
2019-05-26 12:00:00 23.3 4 Sudoeste 13 Sudoeste 0 951.3 -1.2 40
2019-05-26 11:00:00 20.7 4 Norte 15 Noroeste 0 951.9 -0.6 49
2019-05-26 10:00:00 18.2 3 Norte 8 Norte 0 952.1 0.1 56
2019-05-26 09:00:00 15.1 0 Calma 4 Norte 0 952.5 0.8 65
2019-05-26 08:00:00 12.1 0 Calma 8 Oeste 0 952.5 0.6 75
2019-05-26 07:00:00 9.8 0 Calma 8 Sudoeste 0 952 -0.1 81
2019-05-26 06:00:00 10.5 4 Sudoeste 15 Este 0 951.7 -0.4 79
2019-05-26 05:00:00 10.3 3 Sudoeste 8 Sur 0 951.9 -0.4 79
2019-05-26 04:00:00 11.8 0 Calma 5 Oeste 0 952.1 -0.1 74
2019-05-26 03:00:00 13.2 0 Calma -- -- -- 952.1 0 70
2019-05-26 02:00:00 15.2 3 Noroeste 15 Sudeste 0 952.3 0.9 62
2019-05-26 01:00:00 16 0 Calma 8 Sudoeste 0 952.2 1.6 59
2019-05-26 00:00:00 17.1 7 Este 17 Este 0 952.1 2.4 55